Time;durP1;ratioP1;P1;durP2;ratioP2;P2;SDS_P1;SDS_P2;PMS_P1;PMS_P2;Temp;Humidity;BMP_temperature;BMP_pressure;BME280_temperature;BME280_humidity;BME280_pressure;Samples;Min_cycle;Max_cycle;Signal;HPM_P1;HPM_P2
2024/04/08 00:01:02;;;;;;;1.87;1.70;;;;;;;20.02;55.76;97095.09;4953652;28;20208;-29
2024/04/08 00:03:28;;;;;;;2.03;1.63;;;;;;;20.01;56.06;97099.31;4953668;28;20224;-26
2024/04/08 00:05:53;;;;;;;5.10;2.30;;;;;;;19.99;55.96;97094.16;4958576;28;20292;-28
2024/04/08 00:08:19;;;;;;;2.47;1.90;;;;;;;20.00;55.93;97092.50;4958056;28;20206;-27
2024/04/08 00:10:44;;;;;;;4.07;1.93;;;;;;;19.99;55.71;97080.56;4958986;28;20726;-25
2024/04/08 00:13:10;;;;;;;3.60;1.97;;;;;;;20.05;55.79;97092.63;4956503;28;20311;-27
2024/04/08 00:15:36;;;;;;;2.97;1.90;;;;;;;20.05;55.55;97088.41;4953680;28;20204;-33
2024/04/08 00:18:01;;;;;;;2.57;1.70;;;;;;;20.06;55.61;97087.56;4959639;28;20215;-30
2024/04/08 00:20:27;;;;;;;2.47;1.90;;;;;;;20.10;55.71;97088.53;4956399;28;20669;-26
2024/04/08 00:22:52;;;;;;;2.50;1.60;;;;;;;20.08;55.48;97077.41;4953869;28;20311;-26
2024/04/08 00:25:18;;;;;;;2.30;1.97;;;;;;;20.10;55.49;97079.16;4954397;28;20205;-26
2024/04/08 00:27:44;;;;;;;1.93;1.77;;;;;;;20.11;55.49;97070.72;4952158;28;20212;-28
2024/04/08 00:30:10;;;;;;;1.67;1.57;;;;;;;20.13;55.41;97073.34;4961924;28;20623;-28
2024/04/08 00:32:35;;;;;;;2.77;1.60;;;;;;;20.10;55.46;97061.31;4955134;28;20216;-29
2024/04/08 00:35:02;;;;;;;2.03;1.83;;;;;;;20.06;55.49;97063.72;4954121;28;20287;-27
2024/04/08 00:37:27;;;;;;;3.87;1.80;;;;;;;20.02;55.72;97060.25;4953957;29;20209;-26
2024/04/08 00:39:53;;;;;;;2.17;1.93;;;;;;;20.02;55.70;97061.94;4952481;28;20212;-27
2024/04/08 00:42:19;;;;;;;4.97;2.00;;;;;;;19.99;55.89;97063.56;4957930;28;20235;-25
2024/04/08 00:44:44;;;;;;;2.60;1.50;;;;;;;19.99;55.67;97057.63;4958907;28;20291;-37
2024/04/08 00:47:10;;;;;;;2.57;2.10;;;;;;;20.02;55.62;97054.28;4956857;28;20721;-26
2024/04/08 00:49:36;;;;;;;3.43;2.13;;;;;;;20.05;55.75;97054.38;4957143;28;20228;-26
2024/04/08 00:52:01;;;;;;;3.27;1.90;;;;;;;20.06;55.75;97050.97;4929855;28;20726;-27
2024/04/08 00:54:27;;;;;;;3.57;2.00;;;;;;;20.08;55.70;97057.00;4940770;28;20231;-24
2024/04/08 00:56:54;;;;;;;2.37;1.83;;;;;;;20.07;55.67;97045.91;4924297;29;20219;-29
2024/04/08 00:59:19;;;;;;;1.77;1.53;;;;;;;20.09;55.45;97046.84;4942579;29;20263;-25
2024/04/08 01:01:45;;;;;;;2.17;1.70;;;;;;;20.09;55.43;97043.41;4956431;28;20291;-29
2024/04/08 01:04:11;;;;;;;2.60;1.90;;;;;;;20.12;55.42;97052.03;4921617;28;20280;-27
2024/04/08 01:06:36;;;;;;;3.33;2.00;;;;;;;20.14;55.37;97049.56;4923429;29;20244;-27
2024/04/08 01:09:02;;;;;;;3.63;2.17;;;;;;;20.05;55.43;97039.94;4957813;28;20263;-27
2024/04/08 01:11:28;;;;;;;2.83;1.80;;;;;;;20.04;55.39;97048.38;4945666;28;20271;-29
2024/04/08 01:13:54;;;;;;;2.30;1.67;;;;;;;20.04;55.75;97061.13;4959911;28;20263;-27
2024/04/08 01:16:19;;;;;;;2.47;1.77;;;;;;;20.01;55.56;97052.56;4956835;28;20702;-30
2024/04/08 01:18:45;;;;;;;2.17;1.90;;;;;;;20.00;55.81;97051.69;4956655;28;20276;-27
2024/04/08 01:21:11;;;;;;;2.40;1.93;;;;;;;20.01;55.63;97042.38;4963114;28;20212;-27
2024/04/08 01:23:37;;;;;;;3.60;2.30;;;;;;;20.02;55.83;97036.44;4962156;28;20600;-27
2024/04/08 01:26:03;;;;;;;3.03;2.00;;;;;;;20.05;55.61;97034.84;4957572;28;20244;-27
2024/04/08 01:28:29;;;;;;;2.03;1.70;;;;;;;20.06;55.58;97022.91;4956629;28;20212;-26
2024/04/08 01:30:55;;;;;;;2.93;2.00;;;;;;;20.07;55.58;97028.06;4954501;28;20600;-27
2024/04/08 01:33:21;;;;;;;2.13;1.90;;;;;;;20.09;55.60;97038.31;4960107;28;20642;-32
2024/04/08 01:35:47;;;;;;;2.33;2.03;;;;;;;20.11;55.63;97031.56;4961501;28;20214;-26
2024/04/08 01:38:13;;;;;;;2.40;2.03;;;;;;;20.11;55.61;97034.13;4968399;28;20587;-29
2024/04/08 01:40:38;;;;;;;2.57;2.00;;;;;;;20.13;55.46;97032.53;4957759;28;20282;-30
2024/04/08 01:43:04;;;;;;;3.87;2.17;;;;;;;20.14;55.36;97024.91;4955930;28;20236;-26
2024/04/08 01:45:30;;;;;;;3.17;1.93;;;;;;;20.09;55.56;97035.75;4957318;28;20207;-27
2024/04/08 01:47:55;;;;;;;3.10;1.87;;;;;;;20.04;55.70;97033.09;4955466;28;20208;-26
2024/04/08 01:50:21;;;;;;;2.10;1.83;;;;;;;20.02;55.82;97028.78;4956896;28;20223;-28
2024/04/08 01:52:46;;;;;;;2.07;1.83;;;;;;;20.00;55.82;97021.09;4956779;28;20232;-27
2024/04/08 01:55:12;;;;;;;2.40;2.07;;;;;;;20.00;55.79;97015.97;4956473;28;20704;-26
2024/04/08 01:57:38;;;;;;;1.97;1.60;;;;;;;19.99;55.81;97024.47;4963130;28;20204;-26
2024/04/08 02:00:07;;;;;;;2.90;1.90;;;;;;;20.02;55.69;97033.03;4956877;28;20258;-28
2024/04/08 02:02:33;;;;;;;2.83;2.20;;;;;;;20.04;55.81;97019.50;4957837;28;20230;-26
2024/04/08 02:04:59;;;;;;;2.07;1.87;;;;;;;20.05;55.55;97023.75;4964930;28;20652;-26
2024/04/08 02:07:24;;;;;;;2.57;1.80;;;;;;;20.07;55.47;97011.91;4959815;28;20287;-28
2024/04/08 02:09:50;;;;;;;2.20;2.00;;;;;;;20.09;55.43;97013.69;4954446;28;20302;-28
2024/04/08 02:12:16;;;;;;;3.70;1.70;;;;;;;20.10;55.30;97020.50;4959654;28;20264;-27
2024/04/08 02:14:41;;;;;;;2.10;1.90;;;;;;;20.10;55.53;97015.41;4960752;28;20362;-28
2024/04/08 02:17:07;;;;;;;2.50;1.73;;;;;;;20.13;55.51;97014.66;4957727;28;20227;-26
2024/04/08 02:19:32;;;;;;;2.93;1.80;;;;;;;20.13;55.27;97005.31;4955020;28;20212;-26
2024/04/08 02:21:58;;;;;;;2.00;1.80;;;;;;;20.06;55.45;97000.84;4962422;28;20286;-26
2024/04/08 02:24:24;;;;;;;2.47;1.80;;;;;;;20.03;55.45;97003.31;4961233;28;20881;-26
2024/04/08 02:26:49;;;;;;;2.03;1.83;;;;;;;20.01;55.82;96999.00;4958504;28;20222;-27
2024/04/08 02:29:15;;;;;;;1.97;1.77;;;;;;;19.99;55.76;96999.81;4963311;28;20656;-27
2024/04/08 02:31:40;;;;;;;1.90;1.70;;;;;;;19.99;55.68;96993.88;4955572;28;20268;-27
2024/04/08 02:34:06;;;;;;;2.23;1.93;;;;;;;19.99;55.86;96994.69;4955121;28;20254;-27
2024/04/08 02:36:31;;;;;;;2.40;1.90;;;;;;;20.03;55.52;96993.09;4964270;28;20290;-26
2024/04/08 02:38:57;;;;;;;2.50;1.90;;;;;;;20.04;55.49;96999.94;4955226;28;20212;-29
2024/04/08 02:41:23;;;;;;;2.17;1.90;;;;;;;20.06;55.49;97000.84;4955254;29;20604;-28
2024/04/08 02:43:48;;;;;;;2.13;1.90;;;;;;;20.08;55.57;97003.44;4935408;28;20318;-27
2024/04/08 02:46:14;;;;;;;2.93;1.80;;;;;;;20.09;55.51;97005.16;4956038;28;20208;-33
2024/04/08 02:48:41;;;;;;;2.07;1.80;;;;;;;20.10;55.41;97007.75;4962095;28;20214;-28
2024/04/08 02:51:07;;;;;;;2.47;2.07;;;;;;;20.11;55.39;97011.16;4954284;28;20323;-27
2024/04/08 02:53:34;;;;;;;3.43;1.80;;;;;;;20.14;55.27;97013.84;4961105;28;20259;-29
2024/04/08 02:56:05;;;;;;;2.20;1.90;;;;;;;20.08;55.37;97017.06;4954311;28;20209;-28
2024/04/08 02:58:31;;;;;;;2.23;1.60;;;;;;;20.05;55.51;97016.97;4954570;28;20583;-27
2024/04/08 03:01:01;;;;;;;3.73;2.00;;;;;;;20.02;55.58;97009.25;4954110;29;20208;-26
2024/04/08 03:03:27;;;;;;;2.17;1.90;;;;;;;20.01;55.68;97011.75;4939294;29;20275;-25
2024/04/08 03:05:52;;;;;;;2.10;1.90;;;;;;;19.99;55.79;97019.38;4950062;29;20695;-28
2024/04/08 03:08:18;;;;;;;3.03;2.00;;;;;;;20.00;55.88;97015.97;4960551;28;20203;-25
2024/04/08 03:10:43;;;;;;;3.07;1.90;;;;;;;20.02;55.64;97020.28;4956685;28;20299;-26
2024/04/08 03:13:09;;;;;;;4.27;1.60;;;;;;;20.05;55.61;97024.63;4955176;28;20279;-26
2024/04/08 03:15:35;;;;;;;2.40;2.07;;;;;;;20.05;55.57;97019.53;4951815;28;20204;-27
2024/04/08 03:18:01;;;;;;;1.93;1.67;;;;;;;20.06;55.50;97030.56;4959392;28;20734;-26
2024/04/08 03:20:26;;;;;;;2.67;1.83;;;;;;;20.07;55.57;97022.97;4956906;28;20208;-27
2024/04/08 03:22:52;;;;;;;4.00;2.00;;;;;;;20.10;55.49;97025.59;4957082;28;20242;-25
2024/04/08 03:25:17;;;;;;;2.43;1.67;;;;;;;20.11;55.48;97032.44;4953070;28;20664;-27
2024/04/08 03:27:45;;;;;;;3.00;1.90;;;;;;;20.12;55.35;97034.16;4953398;28;20204;-28
2024/04/08 03:30:11;;;;;;;3.47;1.73;;;;;;;20.11;55.44;97042.66;4954486;28;20651;-28
2024/04/08 03:32:37;;;;;;;2.73;2.13;;;;;;;19.99;55.37;97027.84;4954003;28;20278;-26
2024/04/08 03:35:02;;;;;;;1.90;1.70;;;;;;;20.02;55.58;97047.50;4935923;29;20299;-27
2024/04/08 03:37:28;;;;;;;2.00;1.60;;;;;;;20.02;55.34;97041.53;4954647;28;20204;-26
2024/04/08 03:39:54;;;;;;;2.60;1.90;;;;;;;19.99;55.57;97038.06;4958249;28;20283;-29
2024/04/08 03:42:21;;;;;;;1.90;1.80;;;;;;;19.98;55.86;97038.03;4935041;29;20224;-31
2024/04/08 03:44:50;;;;;;;2.83;2.10;;;;;;;20.00;55.83;97046.59;4957994;28;20196;-26
2024/04/08 03:47:16;;;;;;;2.00;1.80;;;;;;;20.04;55.58;97042.44;4953414;28;20668;-33
2024/04/08 03:49:42;;;;;;;3.67;2.13;;;;;;;20.04;55.73;97034.78;4955858;28;20224;-25
2024/04/08 03:52:07;;;;;;;2.27;1.80;;;;;;;20.07;55.47;97022.13;4960445;28;20215;-25
2024/04/08 03:54:33;;;;;;;2.00;1.80;;;;;;;20.07;55.50;97033.16;4952524;29;20268;-27
2024/04/08 03:56:59;;;;;;;3.27;2.10;;;;;;;20.08;55.39;97027.25;4952925;28;20266;-28
2024/04/08 03:59:24;;;;;;;3.27;2.27;;;;;;;20.11;55.41;97026.47;4967187;28;20259;-28
2024/04/08 04:01:50;;;;;;;2.37;1.83;;;;;;;20.12;55.34;97018.00;4954737;28;20212;-26
2024/04/08 04:04:15;;;;;;;2.20;2.00;;;;;;;20.13;55.33;97027.41;4959508;28;20309;-27
2024/04/08 04:06:41;;;;;;;3.13;2.13;;;;;;;20.12;55.22;97031.63;4957691;28;20214;-27
2024/04/08 04:09:10;;;;;;;2.70;2.03;;;;;;;20.07;55.68;97019.56;4963228;28;20221;-33
2024/04/08 04:11:36;;;;;;;3.53;2.20;;;;;;;20.04;55.67;97022.88;4957235;28;20235;-27
2024/04/08 04:14:02;;;;;;;2.43;1.87;;;;;;;20.02;55.75;97025.38;4957038;29;20228;-27
2024/04/08 04:16:28;;;;;;;1.87;1.77;;;;;;;20.02;55.63;97028.78;4957327;28;20220;-29
2024/04/08 04:18:53;;;;;;;2.77;1.93;;;;;;;20.02;55.12;97033.88;4959513;28;20212;-28
2024/04/08 04:21:19;;;;;;;2.03;1.87;;;;;;;20.03;55.42;97033.91;4955848;28;20203;-29
2024/04/08 04:23:45;;;;;;;3.37;1.90;;;;;;;20.05;55.52;97032.28;4957212;28;20228;-26
2024/04/08 04:26:10;;;;;;;3.13;1.90;;;;;;;20.06;55.36;97038.22;4957396;29;20216;-27
2024/04/08 04:28:36;;;;;;;3.00;2.13;;;;;;;20.07;55.34;97034.88;4953862;28;20268;-28
2024/04/08 04:31:02;;;;;;;8.33;3.23;;;;;;;20.14;55.07;97034.25;4955256;29;20236;-29
2024/04/08 04:33:28;;;;;;;6.83;3.27;;;;;;;20.14;54.98;97045.31;4956479;28;20642;-28
2024/04/08 04:35:57;;;;;;;8.03;3.30;;;;;;;20.13;55.07;97043.56;4957293;28;20283;-26
2024/04/08 04:38:23;;;;;;;5.17;3.30;;;;;;;20.14;55.03;97040.22;4956155;29;20688;-27
2024/04/08 04:41:02;;;;;;;7.10;3.20;;;;;;;20.15;55.05;97041.06;4957034;28;20211;-28
2024/04/08 04:43:28;;;;;;;6.07;3.37;;;;;;;20.06;54.75;97033.13;4967732;28;20279;-26
2024/04/08 04:45:54;;;;;;;8.53;3.53;;;;;;;20.06;54.77;97039.09;4966001;28;20391;-27
2024/04/08 04:48:19;;;;;;;9.17;3.77;;;;;;;20.03;54.92;97036.47;4957718;28;20215;-26
2024/04/08 04:50:46;;;;;;;13.50;3.90;;;;;;;20.02;55.17;97033.88;4966320;28;20771;-27
2024/04/08 04:53:11;;;;;;;10.47;4.40;;;;;;;19.98;55.56;97041.44;4961581;28;20239;-27
2024/04/08 04:55:37;;;;;;;13.27;3.63;;;;;;;20.05;54.79;97037.38;4957445;29;20212;-28
2024/04/08 04:58:02;;;;;;;16.87;4.50;;;;;;;20.06;54.26;97038.22;4956426;29;20675;-24
2024/04/08 05:00:31;;;;;;;11.23;4.03;;;;;;;20.07;54.63;97042.53;4956333;28;20247;-26
2024/04/08 05:02:58;;;;;;;13.20;3.90;;;;;;;20.06;54.61;97045.88;4957859;29;20224;-26
2024/04/08 05:05:24;;;;;;;16.97;4.27;;;;;;;20.05;54.74;97041.63;4959860;28;20212;-29
2024/04/08 05:07:50;;;;;;;8.73;3.73;;;;;;;20.04;54.93;97034.78;4956726;28;20208;-26
2024/04/08 05:10:16;;;;;;;10.20;4.00;;;;;;;20.03;54.95;97041.56;4957104;29;20223;-26
2024/04/08 05:12:41;;;;;;;6.73;3.70;;;;;;;20.02;55.30;97047.50;4957108;28;20699;-28
2024/04/08 05:15:08;;;;;;;8.50;3.60;;;;;;;19.98;55.52;97040.56;4965256;28;20660;-26
2024/04/08 05:17:34;;;;;;;8.87;3.53;;;;;;;19.95;55.46;97051.56;4954113;28;20585;-38
2024/04/08 05:20:02;;;;;;;9.10;3.43;;;;;;;19.94;55.44;97049.84;4955792;29;20200;-26
2024/04/08 05:22:28;;;;;;;9.33;3.80;;;;;;;19.93;55.54;97076.16;4964195;28;20699;-26
2024/04/08 05:24:55;;;;;;;7.33;3.17;;;;;;;19.94;55.30;97071.91;4952113;28;20228;-27
2024/04/08 05:27:20;;;;;;;5.23;3.10;;;;;;;19.94;55.39;97077.91;4955924;28;20221;-26
2024/04/08 05:29:46;;;;;;;4.57;3.10;;;;;;;19.98;55.49;97086.47;4962576;28;20215;-26
2024/04/08 05:32:12;;;;;;;7.73;3.47;;;;;;;19.98;55.35;97104.34;4956017;29;20212;-29
2024/04/08 05:34:38;;;;;;;5.33;3.30;;;;;;;19.99;55.32;97129.03;4957249;28;20633;-27
2024/04/08 05:37:04;;;;;;;4.97;2.90;;;;;;;20.01;54.85;97123.97;4955606;29;20196;-30
2024/04/08 05:39:30;;;;;;;6.37;3.13;;;;;;;20.01;55.32;97106.13;4958303;28;20201;-27
2024/04/08 05:41:55;;;;;;;5.63;3.40;;;;;;;20.00;55.38;97087.41;4956756;28;20286;-27
2024/04/08 05:44:21;;;;;;;4.97;3.10;;;;;;;20.02;55.20;97112.94;4957027;28;20600;-26
2024/04/08 05:46:47;;;;;;;6.30;3.30;;;;;;;20.01;55.48;97111.22;4955610;28;20299;-26
2024/04/08 05:49:12;;;;;;;5.57;3.37;;;;;;;19.96;55.41;97086.44;4955824;28;20244;-26
2024/04/08 05:51:38;;;;;;;6.80;3.37;;;;;;;19.96;55.35;97085.59;4955625;29;20227;-28
2024/04/08 05:54:04;;;;;;;8.27;3.60;;;;;;;19.96;55.46;97098.34;4956371;29;20228;-25
2024/04/08 05:56:29;;;;;;;6.47;3.70;;;;;;;19.94;55.83;97095.75;4956686;28;20201;-28
2024/04/08 05:58:55;;;;;;;5.97;3.40;;;;;;;19.96;55.52;97088.13;4940653;29;20223;-26
2024/04/08 06:01:21;;;;;;;5.43;2.87;;;;;;;19.98;55.52;97096.69;4956475;29;20472;-26
2024/04/08 06:03:46;;;;;;;4.50;2.87;;;;;;;19.99;55.69;97098.44;4956228;28;20271;-27
2024/04/08 06:06:16;;;;;;;6.97;2.93;;;;;;;19.99;55.52;97103.53;4958077;28;20208;-27
2024/04/08 06:08:42;;;;;;;8.07;3.50;;;;;;;20.01;55.36;97095.94;4961087;28;20557;-29
2024/04/08 06:11:07;;;;;;;5.93;3.33;;;;;;;20.01;55.48;97109.53;4953237;28;20310;-26
2024/04/08 06:13:33;;;;;;;5.23;3.27;;;;;;;20.02;55.44;97110.41;4959184;28;20303;-27
2024/04/08 06:15:58;;;;;;;6.53;3.13;;;;;;;20.02;55.52;97113.81;4953456;28;20211;-30
2024/04/08 06:18:24;;;;;;;5.13;2.97;;;;;;;20.03;55.44;97118.09;4946356;28;20231;-29
2024/04/08 06:20:56;;;;;;;3.80;2.80;;;;;;;19.99;55.59;97108.63;4952749;29;20694;-29
2024/04/08 06:23:22;;;;;;;7.20;3.10;;;;;;;19.98;55.58;97108.59;4948983;29;20243;-33
2024/04/08 06:26:02;;;;;;;5.77;3.50;;;;;;;19.96;55.55;97109.38;4953017;28;20727;-26
2024/04/08 06:28:28;;;;;;;8.23;3.27;;;;;;;19.98;55.50;97113.69;4951304;29;20216;-28
2024/04/08 06:30:55;;;;;;;5.63;3.00;;;;;;;19.96;55.62;97109.38;4952867;28;20605;-27
2024/04/08 06:33:20;;;;;;;5.20;3.33;;;;;;;19.98;55.58;97104.34;4948735;29;20232;-26
2024/04/08 06:35:46;;;;;;;7.03;3.20;;;;;;;19.99;55.63;97094.16;4952623;28;20216;-33
2024/04/08 06:38:13;;;;;;;5.03;3.27;;;;;;;20.01;55.28;97106.97;4952642;28;20271;-29
2024/04/08 06:40:42;;;;;;;8.93;3.27;;;;;;;20.02;55.47;97101.06;4952399;29;20209;-26
2024/04/08 06:43:08;;;;;;;6.73;2.67;;;;;;;20.02;55.52;97106.16;4947818;29;20709;-32
2024/04/08 06:45:33;;;;;;;5.03;3.00;;;;;;;20.03;55.37;97110.44;4952731;29;20217;-29
2024/04/08 06:47:59;;;;;;;4.63;2.87;;;;;;;20.02;55.49;97101.91;4952638;28;20224;-27
2024/04/08 06:50:25;;;;;;;5.03;2.73;;;;;;;20.04;55.37;97101.09;4952524;28;20235;-26
2024/04/08 06:52:50;;;;;;;4.17;2.70;;;;;;;20.01;55.61;97112.06;4951675;28;20761;-28
2024/04/08 06:55:19;;;;;;;6.70;2.77;;;;;;;19.99;55.55;97121.38;4951737;28;20212;-29
2024/04/08 06:57:45;;;;;;;4.33;2.90;;;;;;;19.98;55.76;97123.06;4951336;28;20671;-28
2024/04/08 07:00:11;;;;;;;3.07;2.60;;;;;;;19.99;55.58;97118.84;4952420;28;20212;-27
2024/04/08 07:02:37;;;;;;;3.10;2.60;;;;;;;19.98;55.70;97114.53;4952129;29;20239;-27
2024/04/08 07:05:04;;;;;;;5.87;3.07;;;;;;;19.99;55.50;97126.50;4951875;29;20208;-27
2024/04/08 07:07:30;;;;;;;6.30;2.97;;;;;;;20.02;55.56;97120.59;4952794;29;20216;-28
2024/04/08 07:11:34;;;;;;;5.00;3.10;;;;;;;20.05;55.39;97113.03;5540781;25;21275;-27
2024/04/08 07:14:00;;;;;;;4.57;2.77;;;;;;;20.03;55.30;97118.09;5491471;25;20236;-31
2024/04/08 07:16:27;;;;;;;3.03;2.60;;;;;;;20.06;55.22;97110.53;5501603;26;20722;-29
2024/04/08 07:18:53;;;;;;;5.87;3.10;;;;;;;20.07;55.61;97106.31;5496466;26;20271;-27
2024/04/08 07:21:21;;;;;;;6.20;2.70;;;;;;;20.08;55.69;97108.91;5504947;25;20327;-29
2024/04/08 07:23:51;;;;;;;8.30;3.50;;;;;;;20.11;55.43;97106.44;5502534;25;20270;-29
2024/04/08 07:26:18;;;;;;;5.40;2.87;;;;;;;20.13;55.52;97102.25;5496528;25;20281;-31
2024/04/08 07:28:45;;;;;;;6.37;3.27;;;;;;;20.15;55.66;97104.84;5504257;25;20258;-29
2024/04/08 07:31:12;;;;;;;4.80;2.90;;;;;;;20.06;55.21;97092.66;5502768;25;20727;-35
2024/04/08 07:33:38;;;;;;;5.93;3.00;;;;;;;20.04;55.28;97101.94;5493336;25;20773;-27
2024/04/08 07:36:05;;;;;;;6.60;3.13;;;;;;;20.02;55.74;97102.75;5489618;25;20255;-29
2024/04/08 07:38:32;;;;;;;4.73;2.70;;;;;;;20.01;55.21;97109.53;5503282;25;20850;-27
2024/04/08 07:40:59;;;;;;;4.37;2.63;;;;;;;20.01;55.61;97119.72;5504124;25;20575;-28
2024/04/08 07:43:25;;;;;;;6.27;3.13;;;;;;;20.03;55.83;97125.75;5503990;26;20752;-29
2024/04/08 07:45:52;;;;;;;4.73;2.80;;;;;;;20.05;55.37;97128.34;5503886;25;20228;-31
2024/04/08 07:48:19;;;;;;;3.03;2.47;;;;;;;20.06;55.72;97135.16;5504180;26;20223;-33
2024/04/08 07:50:47;;;;;;;3.67;2.53;;;;;;;20.06;55.33;97130.06;5504161;25;20651;-29
2024/04/08 07:53:13;;;;;;;6.63;2.83;;;;;;;20.05;55.62;97129.22;5503309;25;20585;-27
2024/04/08 07:55:41;;;;;;;7.60;2.60;;;;;;;20.09;55.67;97136.13;5503437;25;20266;-29
2024/04/08 07:58:07;;;;;;;4.93;2.47;;;;;;;20.11;55.44;97131.94;5502309;25;20867;-28
2024/04/08 08:00:34;;;;;;;5.80;2.70;;;;;;;20.11;54.93;97137.03;5502551;25;20304;-29
2024/04/08 08:03:06;;;;;;;5.57;2.67;;;;;;;20.10;55.07;97131.91;5500613;26;20660;-44
2024/04/08 08:05:33;;;;;;;3.37;2.27;;;;;;;20.14;54.85;97133.75;5503404;25;20236;-29
2024/04/08 08:08:00;;;;;;;5.90;2.50;;;;;;;20.08;55.63;97131.84;5500451;25;20224;-26
2024/04/08 08:10:26;;;;;;;5.20;2.37;;;;;;;20.00;55.39;97125.66;5503011;25;20240;-29
2024/04/08 08:12:53;;;;;;;4.37;2.10;;;;;;;20.04;55.50;97141.91;5504077;25;20239;-37
2024/04/08 08:15:21;;;;;;;2.93;2.23;;;;;;;20.03;55.39;97141.03;5499987;25;20270;-30
2024/04/08 08:17:49;;;;;;;4.73;2.70;;;;;;;20.02;55.81;97148.66;5496007;25;20241;-29
2024/04/08 08:20:17;;;;;;;6.30;2.67;;;;;;;20.04;55.61;97152.97;5503173;25;20236;-29
2024/04/08 08:22:44;;;;;;;3.63;2.60;;;;;;;20.07;55.32;97147.13;5484376;25;20228;-27
2024/04/08 08:25:10;;;;;;;4.60;2.53;;;;;;;20.08;55.15;97136.06;5481746;26;20233;-33
2024/04/08 08:27:37;;;;;;;3.93;2.63;;;;;;;20.08;55.15;97125.88;5487103;26;20274;-33
2024/04/08 08:30:04;;;;;;;4.33;2.73;;;;;;;20.09;55.16;97131.03;5476462;26;20232;-30
2024/04/08 08:32:31;;;;;;;2.90;2.40;;;;;;;20.11;55.53;97134.50;5485781;26;20290;-28
2024/04/08 08:34:58;;;;;;;2.73;2.20;;;;;;;20.12;55.13;97136.22;5481694;26;20225;-35
2024/04/08 08:37:24;;;;;;;2.73;2.07;;;;;;;20.14;54.97;97141.38;5486707;26;20263;-30
2024/04/08 08:39:51;;;;;;;3.73;2.60;;;;;;;20.15;54.85;97135.47;5487212;26;20263;-30
2024/04/08 08:42:21;;;;;;;2.80;2.43;;;;;;;20.13;55.39;97137.13;5481891;26;20348;-27
2024/04/08 08:44:54;;;;;;;3.57;2.43;;;;;;;20.06;54.88;97132.59;5474572;26;20278;-26
2024/04/08 08:47:21;;;;;;;3.17;2.47;;;;;;;20.05;55.16;97133.44;5483511;26;20228;-31
2024/04/08 08:49:55;;;;;;;2.60;2.30;;;;;;;20.04;55.30;97127.47;5436723;26;20584;-29
2024/04/08 08:52:22;;;;;;;3.23;2.33;;;;;;;20.02;55.03;97121.47;5482317;26;20268;-27
2024/04/08 08:54:52;;;;;;;3.37;2.13;;;;;;;20.02;55.73;97122.31;5485714;26;20275;-30
2024/04/08 08:57:19;;;;;;;3.13;2.30;;;;;;;20.02;55.22;97114.66;5479701;26;20580;-33
2024/04/08 08:59:45;;;;;;;2.60;2.40;;;;;;;20.05;55.07;97106.25;5485234;26;20325;-27
2024/04/08 09:02:15;;;;;;;5.83;2.33;;;;;;;20.07;55.75;97106.31;5479306;26;20262;-32
2024/04/08 09:04:42;;;;;;;3.67;2.53;;;;;;;20.05;55.28;97101.16;5478351;26;20605;-33
2024/04/08 09:07:09;;;;;;;3.40;2.30;;;;;;;20.08;55.36;97096.13;5485239;26;20228;-38
2024/04/08 09:09:35;;;;;;;3.30;2.20;;;;;;;20.09;54.91;97086.78;5485056;26;20317;-28
2024/04/08 09:12:02;;;;;;;4.33;2.50;;;;;;;20.11;55.47;97092.78;5475138;26;20830;-29
2024/04/08 09:14:30;;;;;;;3.90;2.33;;;;;;;20.14;55.10;97100.56;5482329;26;20296;-36
2024/04/08 09:17:06;;;;;;;2.57;1.97;;;;;;;20.14;54.97;97096.34;5483719;26;20224;-29
2024/04/08 09:19:32;;;;;;;2.30;2.03;;;;;;;20.08;54.85;97096.13;5472835;26;20224;-28
2024/04/08 09:21:59;;;;;;;3.60;2.50;;;;;;;20.07;55.49;97098.66;5482850;26;20354;-28
2024/04/08 09:24:26;;;;;;;2.63;2.30;;;;;;;20.05;55.20;97103.72;5482661;26;20248;-28
2024/04/08 09:26:52;;;;;;;4.47;2.40;;;;;;;20.04;55.04;97094.31;5483689;26;20228;-27
2024/04/08 09:29:19;;;;;;;2.90;2.33;;;;;;;20.03;55.75;97095.13;5485078;26;20735;-29
2024/04/08 09:31:46;;;;;;;4.53;2.43;;;;;;;20.00;55.47;97092.50;5485392;26;20574;-29
2024/04/08 09:34:13;;;;;;;3.13;2.30;;;;;;;20.05;55.42;97095.19;5483959;26;20237;-27
2024/04/08 09:36:40;;;;;;;3.60;2.53;;;;;;;20.07;55.30;97091.84;5487836;26;20229;-27
2024/04/08 09:39:08;;;;;;;3.63;2.10;;;;;;;20.08;55.12;97085.94;5484390;26;20224;-30
2024/04/08 09:41:36;;;;;;;5.47;2.70;;;;;;;20.06;55.56;97082.47;5482651;26;20342;-27
2024/04/08 09:44:02;;;;;;;3.13;2.20;;;;;;;20.10;55.52;97086.81;5483689;26;20236;-30
2024/04/08 09:46:29;;;;;;;6.30;2.40;;;;;;;20.10;54.92;97079.16;5481771;26;20236;-28
2024/04/08 09:48:57;;;;;;;3.10;2.37;;;;;;;20.13;54.74;97075.91;5480203;26;20234;-29
2024/04/08 09:51:27;;;;;;;2.77;2.30;;;;;;;20.13;55.02;97076.72;5483769;26;20789;-28
2024/04/08 09:53:53;;;;;;;3.53;2.13;;;;;;;20.13;55.30;97079.28;5482499;26;20233;-33
2024/04/08 09:56:21;;;;;;;2.30;2.10;;;;;;;20.09;55.23;97071.47;5480771;26;20267;-27
2024/04/08 09:58:54;;;;;;;3.03;2.20;;;;;;;20.06;55.19;97066.28;5446713;26;20268;-32
2024/04/08 10:01:22;;;;;;;2.73;2.10;;;;;;;20.03;55.10;97056.88;5450257;26;20241;-39
2024/04/08 10:03:50;;;;;;;2.23;2.03;;;;;;;20.03;55.33;97061.97;5442744;26;20613;-27
2024/04/08 10:06:17;;;;;;;3.37;2.40;;;;;;;20.02;55.25;97047.50;5481749;26;20244;-28
2024/04/08 10:08:44;;;;;;;3.97;2.43;;;;;;;20.05;54.95;97054.38;5476539;26;20217;-27
2024/04/08 10:11:12;;;;;;;2.20;2.00;;;;;;;20.07;55.17;97050.19;5480713;26;21029;-27
2024/04/08 10:13:48;;;;;;;4.20;2.20;;;;;;;20.08;55.15;97046.78;5446577;26;20230;-34
2024/04/08 10:16:15;;;;;;;2.73;2.13;;;;;;;20.09;55.08;97045.97;5483179;26;20610;-28
2024/04/08 10:18:54;;;;;;;3.23;2.20;;;;;;;20.11;54.91;97039.22;5476740;26;20263;-32
2024/04/08 10:21:21;;;;;;;3.23;2.40;;;;;;;20.11;54.92;97032.44;5484288;26;20228;-29
2024/04/08 10:23:51;;;;;;;2.43;2.23;;;;;;;20.11;54.96;97022.25;5483320;26;20236;-29
2024/04/08 10:26:18;;;;;;;3.00;2.10;;;;;;;20.12;54.72;97023.97;5481372;26;20284;-34
2024/04/08 10:28:44;;;;;;;3.37;2.17;;;;;;;20.06;54.70;97005.06;5483791;26;20224;-36
2024/04/08 10:31:12;;;;;;;4.60;2.07;;;;;;;20.09;54.80;97016.22;5483695;26;20228;-27
2024/04/08 10:33:38;;;;;;;4.37;2.50;;;;;;;20.07;55.07;97006.81;5471201;26;20236;-34
2024/04/08 10:36:07;;;;;;;3.67;1.80;;;;;;;20.05;54.94;97014.44;5482952;26;20620;-28
2024/04/08 10:38:34;;;;;;;3.60;2.27;;;;;;;20.05;55.02;97013.56;5448286;26;20590;-26
2024/04/08 10:41:05;;;;;;;2.07;1.87;;;;;;;20.03;55.51;97016.06;5484420;26;20240;-28
2024/04/08 10:43:36;;;;;;;2.87;2.20;;;;;;;20.05;55.27;97009.31;5476541;26;20283;-28
2024/04/08 10:46:08;;;;;;;2.40;2.00;;;;;;;20.07;54.99;96999.16;5479025;26;20228;-34
2024/04/08 10:48:39;;;;;;;2.30;2.10;;;;;;;20.07;55.09;97007.66;5479013;26;20228;-26
2024/04/08 10:51:09;;;;;;;1.87;1.77;;;;;;;20.08;55.33;97003.44;5480062;26;20798;-29
2024/04/08 10:53:39;;;;;;;2.43;2.23;;;;;;;20.09;55.22;97003.47;5482439;26;20237;-29
2024/04/08 10:56:06;;;;;;;2.30;2.10;;;;;;;20.10;55.41;97004.34;5483021;26;20262;-32
2024/04/08 10:58:32;;;;;;;1.80;1.70;;;;;;;20.11;54.77;97004.38;5481454;26;20307;-29
2024/04/08 11:00:59;;;;;;;2.30;2.00;;;;;;;20.09;55.40;96985.63;5477921;26;20229;-29
2024/04/08 11:03:29;;;;;;;2.37;1.80;;;;;;;20.17;55.25;96996.06;5479361;26;20686;-30
2024/04/08 11:05:56;;;;;;;2.97;2.30;;;;;;;20.13;54.82;96982.34;5480926;26;20225;-29
2024/04/08 11:08:23;;;;;;;4.60;1.77;;;;;;;20.11;55.48;96988.22;5449795;26;20268;-32
2024/04/08 11:10:50;;;;;;;4.83;2.50;;;;;;;20.07;55.24;96987.25;5481926;26;20354;-29
2024/04/08 11:13:16;;;;;;;4.67;2.20;;;;;;;20.07;55.54;96988.97;5482946;26;20270;-28
2024/04/08 11:15:47;;;;;;;5.43;2.23;;;;;;;20.06;55.79;96987.22;5483320;26;20225;-28
2024/04/08 11:18:14;;;;;;;9.13;2.47;;;;;;;20.06;55.44;96985.53;5480463;26;20297;-31
2024/04/08 11:20:42;;;;;;;4.67;2.30;;;;;;;20.07;55.36;96988.97;5452406;26;20765;-26
2024/04/08 11:23:08;;;;;;;5.20;2.17;;;;;;;20.09;55.48;96984.75;5482773;26;20724;-30
2024/04/08 11:25:35;;;;;;;2.83;2.30;;;;;;;20.10;55.63;96984.78;5477747;26;20229;-28
2024/04/08 11:28:02;;;;;;;2.73;2.00;;;;;;;20.12;54.95;96985.69;5475099;26;20229;-27
2024/04/08 11:30:35;;;;;;;3.07;2.20;;;;;;;20.13;54.93;96984.91;5449022;26;20276;-30
2024/04/08 11:33:05;;;;;;;2.30;2.10;;;;;;;20.12;54.82;96983.16;5479596;26;20233;-26